34ème Rallye Terre des Cardabelles
Championnat de France des Rallyes sur Terre
1 2 CUOQ Jean-Marie/GRANDEMANGE Marielle Citroën C4 WRC FA 8W 9:45,9 92km/h 1
2 6 BAUD Lionel/BAUD Lucie Citroën DS3 WRC A 8W 9:56,4 +00:10,5 +00:10,5 1
3 5 MAURIN Julien/URAL Olivier Citroën DS3 WRC A 8W 10:00,9 +00:15,0 +00:04,5 1
4 3 FERAUD Cyrille/DUCHEMIN Aymeric Citroën C4 WRC FA 8W 10:11,4 +00:25,5 +00:10,5 1
5 4 DURBEC Thibault/RENUCCI Jacques-Julien Citroën DS3 WRC A 8W 10:16,0 +00:30,1 +00:04,6 1
6 7 SALGUES Gilles/MOUYSSET Jérôme Citroën Xsara WRC FA 8W 10:17,5 +00:31,6 +00:01,5
7 1 BERFA Jordan/AUGUSTIN Damien HUYNDAI i20 R5 R 5 10:19,9 +00:34,0 +00:02,4 1
8 8 MORDACQ Arnaud/ROUX Thomas Mitsubishi Lancer Evo9 FN 4 10:25,2 +00:39,3 +00:05,3 1
9 12 PELUTTIERO Thibaud/REICHENECKER Josh Mitsubishi Lancer EvoX R 4 10:41,6 +00:55,7 +00:16,4 1
10 11 CECCHI Philippe/LETOURNEAU Lara Citroën DS3 R5 R 5 10:46,0 +01:00,1 +00:04,4
11 25 MARTI Christian/NOLORGUES Rémi Mitsubishi Lancer Evo9 FN 4 10:47,9 +01:02,0 +00:01,9 1
12 40 BLANC Francois-Xavier/DE TURCKHEIM Gilles Peugeot 208 VTI R 2 10:51,2 +01:05,3 +00:03,3 1 2 3
13 16 CLARETY Jérôme/LACOSTE Vincent Mitsubishi Lancer EvoX R 4 10:52,0 +01:06,1 +00:00,8
14 72 GIORDANENGO Jimmy/DELAMOTTE Alexis Mitsubishi Lancer Evo9 FA 8 10:52,2 +01:06,3 +00:00,2
15 31 LLARENA Efren/FERNANDEZ Sara Peugeot 208 VTI R 2 10:52,4 +01:06,5 +00:00,2 3
16 36 LARIO Taisko/RYYNANEN Tatu Peugeot 208 VTI R 2 10:54,7 +01:08,8 +00:02,3 3
17 30 PELLIER Laurent/NEYRET-GIGOT Benoît Peugeot 208 VTI R 2 10:55,8 +01:09,9 +00:01,1 3
18 24 CHAYNES Gary/TRIBOUT Christian Mitsubishi Lancer Evo9 FN 4 10:56,2 +01:10,3 +00:00,4 1
19 85 CONDAMINES Florian/CAVAILLES Aurélien Subaru Impreza N 4 11:00,6 +01:14,7 +00:04,4
20 33 PINHEIRO Karl-Alexandre/LE FLOCH Franck Peugeot 208 VTI R 2 11:02,3 +01:16,4 +00:01,7 3
21 64 CROS Olivier/PRIVAT Christophe Subaru Impreza FA 8 11:03,7 +01:17,8 +00:01,4
22 91 DUNAND Alexandre/BROUZE Olivier Subaru Impreza Sti FN 4 11:06,2 +01:20,3 +00:02,5
23 32 SAHILA Aki/SUORSA Rami Peugeot 208 VTI R 2 11:07,9 +01:22,0 +00:01,7 3
24 34 MAISANO Brandon/PEBEYRE Pierre Peugeot 208 VTI R 2 11:07,9 +01:22,0 3
25 90 VEYRARD Didier/TARDY Vincent Subaru Impreza STI FN 4 11:09,3 +01:23,4 +00:01,4
26 35 BOSCH Florentin/TEMPIER Romain Peugeot 208 VTI R 2 11:09,5 +01:23,6 +00:00,2 3
27 21 ASTIER Loïc/DECLERCK Loïc Citroën DS3 R3 R 3 11:10,6 +01:24,7 +00:01,1 1 2
28 78 MOREL Jean-Luc/GIDEL Philippe Subaru Impreza WRX FN 4 11:11,4 +01:25,5 +00:00,8
29 19 SALIN Daniel/SALIN Brigitte Subaru Impreza WRX R 4 11:11,4 +01:25,5
30 26 JULIA David/AUBERTIN Ludovic Peugeot 206 Rc F2 14 11:11,9 +01:26,0 +00:00,5 1 2
31 27 MASCLAUX Arnaud/MOULIN Alexandre Renault Clio Ragnotti F2 14 11:11,9 +01:26,0 1 2
32 37 BAUDOIN Thomas/MILLET Kévin Peugeot 208 VTI R 2 11:16,1 +01:30,2 +00:04,2 3
33 39 MOLLARD Alexandre/EYMIN Nicolas Peugeot 208 VTI R 2 11:17,2 +01:31,3 +00:01,1 3
34 84 FONTAINE Fabien/BARD Jérôme Mitsubishi Lancer Evo5 FN 4 11:17,6 +01:31,7 +00:00,4
35 17 DESANGLES Yanis/THERON Nicolas Subaru Impreza STI R 4 11:18,1 +01:32,2 +00:00,5
36 70 TARDY Guillaume/CHOUDEY Marc-Emilien Subaru Impreza FA 8 11:18,3 +01:32,4 +00:00,2
37 41 FRANCESCHI Jean-Baptiste/COURBON Romain Ford Fiesta R2J R 2 11:30,7 +01:44,8 +00:12,4 4
38 81 PUEL Gérard/PUEL Caroline Mitsubishi Lancer Evo8 FN 4 11:31,1 +01:45,2 +00:00,4
39 28 VITAL Jean-Pierre/DECOUZON Pierre Citroën Saxo VTS F2 13 11:32,4 +01:46,5 +00:01,3 1 2
40 89 BLANC Jean-Francois/ROL Evelyne Mitsubishi Lancer Evo8 FN 4 11:33,6 +01:47,7 +00:01,2
41 73 PARISI-FOUQUE Alain/MARSILY Eric Subaru Impreza FA 8 11:34,1 +01:48,2 +00:00,5
42 105 GILHODES Damien/GILHODES Jean-Louis Citroën Saxo T4 FA 6K 11:35,5 +01:49,6 +00:01,4
43 87 CALAMEL Carol/CALAMEL Amélie Subaru Impreza FN 4 11:36,1 +01:50,2 +00:00,6
44 56 EYDOUX Laurent/MOUTOT Olivier Peugeot 206 XS FA 6K 11:39,8 +01:53,9 +00:03,7
45 47 CHANTRIAUX Audric/GAREL Romain Ford Fiesta R2J R 2 11:40,4 +01:54,5 +00:00,6 4
46 115 FRANCESCHI Mathieu/MANZO Benoît Citroën C2 R2 R 2 11:42,9 +01:57,0 +00:02,5
47 29 SABATIER Florent/SANTIAGO Thomas Peugeot 106 S16 FA 6 11:44,7 +01:58,8 +00:01,8 1 2
48 110 MAUREL Alain/MAUREL Lucile Citroën Saxo T4 FA 6K 11:44,9 +01:59,0 +00:00,2
49 82 SOUMAORO Moriféré/JACQUELIN Pierre Mitsubishi Lancer Evo10 N 4 11:46,0 +02:00,1 +00:01,1
50 43 FOURMAUX Adrien/PARENT Kévin Ford Fiesta R2J R 2 11:47,8 +02:01,9 +00:01,8 4
51 44 CARTIER Victor/CRAEN Fabien Ford Fiesta R2J R 2 11:48,8 +02:02,9 +00:01,0 4
52 62 MAUREL Yves/MAUREL Maxime Peugeot 207 S2000 FA 7S 11:49,5 +02:03,6 +00:00,7
53 114 ARTIERES Nicolas/VINCENT Frédéric Peugeot 208 VTI R 2 11:49,6 +02:03,7 +00:00,1
54 63 LOPEZ Etienne/MERCIER Marjorie Subaru Impreza WRX FA 8 11:50,5 +02:04,6 +00:00,9
55 49 CORNU Alexandre/FASSOLA Thibault Ford Fiesta R2J R 2 11:50,9 +02:05,0 +00:00,4 4
56 108 THEROND Nicolas/BAFFALIE François Citroën Saxo T4 FA 6K 11:51,5 +02:05,6 +00:00,6
57 66 MARON-GIRARD Alain/GRENIER Bernard Mitsubishi Lancer Evo9 FA 8 11:53,5 +02:07,6 +00:02,0
58 48 GIUSTI Igor/DINI Gilbert Ford Fiesta R2J R 2 11:53,7 +02:07,8 +00:00,2 4
59 106 LUCADOU Dominique/LUCADOU Joris Citroën Saxo T4 FA 6K 11:54,3 +02:08,4 +00:00,6
60 20 MORAES Henri/MORAES Anthony Subaru Impreza WRX FA 8 11:59,8 +02:13,9 +00:05,5 1
61 120 BOUZID Lilian/VERGNES Antony Peugeot 306 S16 FA 7 12:00,4 +02:14,5 +00:00,6
62 132 ARTZNER Mathieu/GIRARD Vincent Peugeot 206 XS F2 13 12:00,5 +02:14,6 +00:00,1
63 50 PONTAL Julien/BARRAL Florian Ford Fiesta R2J R 2 12:00,9 +02:15,0 +00:00,4 4
64 109 MAS Paul/BERTRAND Nathalie Citroën Saxo T4 FA 6K 12:01,9 +02:16,0 +00:01,0
65 77 CALMELS Pierre/BONALDI Xavier Citroën DS3 R3 R 3 12:01,9 +02:16,0
66 104 MARCOBAL Thierry/BOYER Jean-Francois Citroën Saxo T4 FA 6K 12:02,2 +02:16,3 +00:00,3
67 116 JOUINES Jean/CHABBERT Martin Opel Adam Rally R FR2 12:03,0 +02:17,1 +00:00,8
68 46 CURIOZ Benjamin/BEERENS Pierre Ford Fiesta R2J R 2 12:05,5 +02:19,6 +00:02,5 4
69 137 GELAS Fabrice/BARRACHIN Florian Peugeot 106 S16 F2 13 12:09,1 +02:23,2 +00:03,6
70 100 MOULIN François/BONNET Dorine Renault Clio RS F2 14 12:11,3 +02:25,4 +00:02,2
71 45 GANDELLI David/BIAGETTI Loan Ford Fiesta R2J R 2 12:13,4 +02:27,5 +00:02,1 4
72 124 VIALA Jérôme/ROUBY Nathan Peugeot 206 Rc FA 7 12:13,9 +02:28,0 +00:00,5
73 51 MOUSTIN Doriann/DESNOYERS Alexia Ford Fiesta R2J R 2 12:14,1 +02:28,2 +00:00,2 4
74 98 ROUCOULY Mathieu/MONNERON Lionel Peugeot 309 GTI F2 14 12:15,5 +02:29,6 +00:01,4
75 125 PANSARD Olivier/GIOVANELLI Christophe Peugeot 205 GTI FA 7 12:15,8 +02:29,9 +00:00,3
76 126 ROCHER Arnaud/PAULHAN Sabine Renault Clio RS FA 7 12:16,1 +02:30,2 +00:00,3
77 111 ESPALIEU David/NUNES Robert Citroën Saxo T4 FA 6K 12:16,4 +02:30,5 +00:00,3
78 86 ECK Jean-Luc/ECK Aurélien Subaru Impreza WRX FN 4 12:18,0 +02:32,1 +00:01,6
79 142 CHENEVAY Rémy/ESCARTEFIGUE Jules Citroën Saxo VTS FA 6 12:18,2 +02:32,3 +00:00,2
80 95 BONALDI Pierre-Benoit/CANTANHEDE Bruno Peugeot 306 S16 F2 14 12:20,0 +02:34,1 +00:01,8
81 23 CHAPUS Serge/FAVREAU Mathieu Citroën DS3 R3 R 3 12:21,6 +02:35,7 +00:01,6 1 2
82 67 MONNIER Alain/JAMAGOTCHIAN Cyril Subaru Impreza Sti FA 8 12:23,5 +02:37,6 +00:01,9
83 53 VIAROUGE David/BENZAL Aurélien Ford Fiesta R2J R 2 12:26,0 +02:40,1 +00:02,5 4
84 107 CHASSANIOL Jacky/CUBIZOLLES Arnaud Citroën Saxo T4 FA 6K 12:27,6 +02:41,7 +00:01,6
85 65 JARLAN Maxime/CAMALY Thierry Subaru Impreza FA 8 12:28,4 +02:42,5 +00:00,8
86 68 PASQUALINI Pierre/OLLARI Gérard B.M.W. 325i FA 8 12:29,4 +02:43,5 +00:01,0
87 123 FRELAUT Yohann/CASSAGNADE Pascal Peugeot 206 Rc FA 7 12:32,7 +02:46,8 +00:03,3
88 127 TROMEL Frank/TROMEL Corinne Peugeot 206 Rc FA 7 12:33,1 +02:47,2 +00:00,4
89 128 LESCURE Philippe/ESCAICH Bertrand Peugeot 306 S16 FA 7 12:33,6 +02:47,7 +00:00,5
90 129 BRAJON Ludovic/SALANSON Thierry Renault Clio RS FN 3 12:37,0 +02:51,1 +00:03,4
91 140 RALITE Christophe/ABBAL Marie Peugeot 106 S16 FA 6 12:40,6 +02:54,7 +00:03,6
92 55 GILLET Nicolas/CORIA Alexandre Ford Fiesta R2J R 2 12:41,4 +02:55,5 +00:00,8 4
93 118 GABEREL Nicolas/VILANOVA Teddy Peugeot 208 VTI R 2 12:48,4 +03:02,5 +00:07,0
94 74 ROUGIER Régis/SUBE Ludovic Subaru Impreza WRX FA 8 12:51,6 +03:05,7 +00:03,2
95 59 CLEMENT Frédéric/COSTES François Peugeot 206 Rc F2 14 12:57,7 +03:11,8 +00:06,1 1 2
96 139 MOLINA Gerome/RENARD Aurélien Dacia Logan F2 13 13:00,0 +03:14,1 +00:02,3
97 93 CHARRIE Yoann/JAMMES Yannick Peugeot 206 Rc F2 14 13:00,9 +03:15,0 +00:00,9
98 52 VIANO Allison/CHOL Cecilia Ford Fiesta R2J R 2 13:06,1 +03:20,2 +00:05,2 4
99 112 BIAU Jean-Luc/BROLIQUET Eric Peugeot 206 XS FA 6K 13:10,1 +03:24,2 +00:04,0
100 121 GAGNEUR Hervé/DESNOYERS Jean-Philippe Peugeot 306 S16 FA 7 13:11,8 +03:25,9 +00:01,7
101 102 VIDAL Marc/MONTARON Loïc Peugeot 309 GTI 16S F2 14 13:13,0 +03:27,1 +00:01,2
102 117 LEYGUE Laurent/GEORGE Nicolas Peugeot 208 VTI R 2 13:18,1 +03:32,2 +00:05,1
103 136 MAJOREL Clément/GINESTE Elsa Peugeot 106 S16 F2 13 13:29,2 +03:43,3 +00:11,1
104 122 GUILLON Jean-Luc/NEGRE Jean-Pierre Peugeot 206 GT FA 7 13:29,4 +03:43,5 +00:00,2
105 135 GERMAIN Alex/POIROT Edgard Peugeot 205 GTI F2 13 13:50,6 +04:04,7 +00:21,2
106 119 EXBRAYAT Jérôme/SAGNARD Franck Ford Fiesta R2 R 2 13:52,4 +04:06,5 +00:01,8
107 146 FRANCOIS Léa/FRANCOIS Solene Peugeot 106 S16 FN 2 13:59,6 +04:13,7 +00:07,2
108 96 BARAT DA COSTA RODRIGO Tony/LOPEZ Yannick B.M.W. 320i F2 14 14:01,9 +04:16,0 +00:02,3
109 147 AGNIEL Damien/PAYSAN Jean-Paul Peugeot 106 XSI FN 2 14:09,6 +04:23,7 +00:07,7
110 94 MARTIN Gary/FACCIO Alexandra Peugeot 106 S16 F2 13 14:18,2 +04:32,3 +00:08,6
111 144 PORTAL Kévin/YONNET Fabien Ford Fiesta R1 R 1 14:25,0 +04:39,1 +00:06,8
112 145 LATIEZE Yvan/GOUY Cindy Peugeot 106 S16 FN 2 14:27,9 +04:42,0 +00:02,9
113 61 BELLIARDO Daniel/BRAQUET Jean-Baptiste Peugeot 306 S16 FN 3 14:29,9 +04:44,0 +00:02,0 1 2
114 143 POUGET Dorian/BERNARD Kévin Peugeot 106 XSI FA 5K 14:44,6 +04:58,7 +00:14,7
115 149 BES Yves/BURGUIERE Alexis Peugeot 106 XR F2 11 15:11,1 +05:25,2 +00:26,5
116 131 PIQUERAS Jérôme/BLANC Morgan Peugeot 205 GTI F2 13 15:23,9 +05:38,0 +00:12,8
117 148 LEMAIRE Yoann/POMAREDE Marc Citroën Saxo VTS F2 12 15:55,7 +06:09,8 +00:31,8
118 9 PETIT Jean-Eric/MAURIN Mathieu Ford Fiesta R5 R 5 18:25,6 +08:39,7 +02:29,9 1
119 138 PICARD Erick/LEBRETTON Amandine Dacia Logan F2 13 20:59,9 +11:14,0 +02:34,3
Clt Equipage Voiture Gr/Cl Temps Ecart 1er Ecart préc. Catégories
Commentaires: © PatricK Soft  
(Temps forfaitaires=couleur bleue)
Classés:119

Epreuve: Groupe: Catégorie:

 
Retour
Classement ES2-LHospitalet 1 (15.000 km)